Terminal Aerodrome Forecast
Issued by NWS

Home | Current Version | Previous Version | Text Only | Print | Product List | Glossary On
Versions: 1 2 3 4 5 6 7 8 9 10 11 12 13 14
000
FTUS45 KVEF 131700
TAFEED
TAF
KEED 131722Z 1318/1418 VRB05KT P6SM SCT150 BKN250
     FM132100 22009KT P6SM BKN140 BKN250
     FM140700 VRB05KT P6SM BKN140 BKN200=

USA.gov is the U.S. government's official web portal to all federal, state and local government web resources and services.